Terminal Aerodrome Forecast
Issued by NWS

Home | Current Version | Previous Version | Text Only | Print | Product List | Glossary On
Versions: 1 2 3 4 5 6 7 8 9 10 11 12 13 14 15
330
FTUS45 KRIW 201811 AAB
TAFLND
TAF AMD
KLND 201811Z 2018/2118 VRB10G20KT P6SM FEW100 WS010/24050KT
     FM210100 24015G25KT P6SM SCT100 BKN200 WS010/24050KT
     FM211500 25024G34KT P6SM BKN150 WS010/24050KT=

USA.gov is the U.S. government's official web portal to all federal, state and local government web resources and services.